Time;durP1;ratioP1;P1;durP2;ratioP2;P2;SDS_P1;SDS_P2;PMS_P1;PMS_P2;Temp;Humidity;BMP_temperature;BMP_pressure;BME280_temperature;BME280_humidity;BME280_pressure;Samples;Min_cycle;Max_cycle;Signal;HPM_P1;HPM_P2
2023/11/15 00:01:32;;;;;;;0.28;0.20;;;;;;;;;;5003010;28;20784;-73
2023/11/15 00:03:57;;;;;;;0.70;0.40;;;;;;;;;;5001564;28;20045;-74
2023/11/15 00:06:23;;;;;;;1.00;0.20;;;;;;;;;;5003292;28;20164;-74
2023/11/15 00:08:48;;;;;;;0.30;0.30;;;;;;;;;;5001959;28;20539;-73
2023/11/15 00:11:18;;;;;;;0.13;0.13;;;;;;;;;;4999791;28;20040;-74
2023/11/15 00:13:50;;;;;;;0.13;0.10;;;;;;;;;;5016560;28;20667;-74
2023/11/15 00:16:16;;;;;;;0.30;0.30;;;;;;;;;;5006731;28;20556;-74
2023/11/15 00:18:42;;;;;;;0.32;0.20;;;;;;;;;;5000781;28;20122;-74
2023/11/15 00:21:08;;;;;;;0.80;0.30;;;;;;;;;;5007913;28;20092;-74
2023/11/15 00:23:34;;;;;;;0.20;0.13;;;;;;;;;;5011529;28;20490;-74
2023/11/15 00:26:00;;;;;;;0.85;0.55;;;;;;;;;;5006964;28;20563;-74
2023/11/15 00:28:26;;;;;;;0.32;0.30;;;;;;;;;;5009053;28;20099;-74
2023/11/15 00:30:52;;;;;;;0.40;0.40;;;;;;;;;;5008818;28;20073;-74
2023/11/15 00:33:18;;;;;;;0.30;0.30;;;;;;;;;;4986902;28;20038;-74
2023/11/15 00:35:43;;;;;;;0.40;0.40;;;;;;;;;;5006914;28;20464;-74
2023/11/15 00:38:11;;;;;;;0.30;0.30;;;;;;;;;;5005387;28;20042;-74
2023/11/15 00:40:37;;;;;;;0.73;0.47;;;;;;;;;;4990225;28;20468;-73
2023/11/15 00:43:03;;;;;;;0.10;0.10;;;;;;;;;;5000563;28;20144;-74
2023/11/15 00:45:29;;;;;;;0.52;0.30;;;;;;;;;;4996571;28;20161;-73
2023/11/15 00:47:54;;;;;;;0.52;0.35;;;;;;;;;;5012582;28;20613;-74
2023/11/15 00:50:20;;;;;;;0.80;0.38;;;;;;;;;;5014510;28;20038;-74
2023/11/15 00:52:45;;;;;;;0.38;0.38;;;;;;;;;;5015466;28;20094;-73
2023/11/15 00:55:12;;;;;;;0.40;0.40;;;;;;;;;;4999163;28;20065;-74
2023/11/15 00:57:38;;;;;;;0.30;0.30;;;;;;;;;;5011266;28;20523;-76
2023/11/15 01:00:13;;;;;;;0.40;0.40;;;;;;;;;;4988140;28;20041;-76
2023/11/15 01:02:46;;;;;;;1.15;0.40;;;;;;;;;;4987530;28;20129;-77
2023/11/15 01:05:11;;;;;;;0.40;0.40;;;;;;;;;;5014282;28;20124;-76
2023/11/15 01:07:37;;;;;;;0.75;0.40;;;;;;;;;;4999001;28;20034;-76
2023/11/15 01:10:05;;;;;;;0.30;0.30;;;;;;;;;;5009696;28;20117;-76
2023/11/15 01:12:30;;;;;;;1.33;0.40;;;;;;;;;;5006465;28;20045;-76
2023/11/15 01:14:55;;;;;;;0.68;0.40;;;;;;;;;;5003253;28;20172;-76
2023/11/15 01:17:21;;;;;;;0.50;0.50;;;;;;;;;;5002440;28;20100;-76
2023/11/15 01:19:49;;;;;;;0.80;0.50;;;;;;;;;;4995768;28;20042;-74
2023/11/15 01:22:14;;;;;;;0.50;0.50;;;;;;;;;;4992622;28;20037;-74
2023/11/15 01:24:41;;;;;;;1.27;0.60;;;;;;;;;;4999381;28;20033;-74
2023/11/15 01:27:07;;;;;;;1.42;0.80;;;;;;;;;;5011813;28;20041;-74
2023/11/15 01:29:32;;;;;;;0.73;0.52;;;;;;;;;;5014866;28;20036;-74
2023/11/15 01:31:58;;;;;;;1.10;1.00;;;;;;;;;;5007700;28;20072;-74
2023/11/15 01:34:23;;;;;;;1.08;0.73;;;;;;;;;;4996323;28;20507;-74
2023/11/15 01:36:49;;;;;;;0.77;0.77;;;;;;;;;;4998991;28;20034;-74
2023/11/15 01:39:17;;;;;;;2.45;0.70;;;;;;;;;;5001686;28;20040;-74
2023/11/15 01:41:48;;;;;;;1.42;0.60;;;;;;;;;;5005420;28;20034;-74
2023/11/15 01:44:15;;;;;;;2.38;0.88;;;;;;;;;;5013210;28;20431;-75
2023/11/15 01:46:41;;;;;;;3.92;0.80;;;;;;;;;;5008894;28;20136;-75
2023/11/15 01:49:08;;;;;;;0.90;0.63;;;;;;;;;;4999527;28;20046;-74
2023/11/15 01:51:34;;;;;;;0.55;0.55;;;;;;;;;;5007738;28;20611;-75
2023/11/15 01:54:00;;;;;;;0.93;0.57;;;;;;;;;;5004327;28;20057;-75
2023/11/15 01:56:26;;;;;;;0.98;0.50;;;;;;;;;;5001470;28;20053;-75
2023/11/15 01:58:52;;;;;;;0.43;0.43;;;;;;;;;;5019958;28;20033;-75
2023/11/15 02:01:17;;;;;;;1.15;0.55;;;;;;;;;;5003524;28;20041;-75
2023/11/15 02:03:43;;;;;;;1.73;0.60;;;;;;;;;;4979239;28;20048;-75
2023/11/15 02:06:09;;;;;;;0.88;0.60;;;;;;;;;;5005989;28;20042;-74
2023/11/15 02:08:35;;;;;;;0.75;0.40;;;;;;;;;;5002226;28;20033;-75
2023/11/15 02:11:00;;;;;;;0.60;0.47;;;;;;;;;;5009694;28;20037;-74
2023/11/15 02:13:26;;;;;;;0.52;0.35;;;;;;;;;;5012140;28;20097;-75
2023/11/15 02:15:52;;;;;;;0.60;0.55;;;;;;;;;;5006079;28;20041;-75
2023/11/15 02:18:19;;;;;;;0.95;0.43;;;;;;;;;;5008382;28;20479;-74
2023/11/15 02:20:46;;;;;;;0.30;0.30;;;;;;;;;;5000928;28;20030;-74
2023/11/15 02:23:13;;;;;;;0.47;0.47;;;;;;;;;;5010500;28;20524;-74
2023/11/15 02:25:40;;;;;;;4.28;1.00;;;;;;;;;;5016582;28;20121;-74
2023/11/15 02:28:06;;;;;;;2.47;0.95;;;;;;;;;;5011041;28;20037;-74
2023/11/15 02:30:31;;;;;;;3.28;1.30;;;;;;;;;;4995063;28;20055;-74
2023/11/15 02:32:56;;;;;;;0.73;0.60;;;;;;;;;;5004022;28;20503;-74
2023/11/15 02:35:22;;;;;;;3.08;1.08;;;;;;;;;;5012025;28;20036;-73
2023/11/15 02:37:48;;;;;;;1.55;1.10;;;;;;;;;;5005349;28;20038;-74
2023/11/15 02:40:13;;;;;;;2.38;1.63;;;;;;;;;;5006607;28;20539;-73
2023/11/15 02:42:39;;;;;;;4.10;1.17;;;;;;;;;;5012639;28;20041;-73
2023/11/15 02:45:05;;;;;;;2.60;1.20;;;;;;;;;;5000226;28;20092;-74
2023/11/15 02:47:30;;;;;;;3.40;1.10;;;;;;;;;;5000678;28;20115;-73
2023/11/15 02:49:56;;;;;;;1.17;0.88;;;;;;;;;;5005158;28;20046;-73
2023/11/15 02:52:21;;;;;;;1.35;0.90;;;;;;;;;;5001985;28;20512;-73
2023/11/15 02:54:48;;;;;;;1.38;0.60;;;;;;;;;;5004624;28;20030;-74
2023/11/15 02:57:13;;;;;;;1.70;0.80;;;;;;;;;;4999493;28;20030;-74
2023/11/15 02:59:39;;;;;;;2.33;1.00;;;;;;;;;;4988639;28;20041;-74
2023/11/15 03:02:04;;;;;;;2.13;0.90;;;;;;;;;;4998946;28;20041;-73
2023/11/15 03:04:30;;;;;;;3.45;1.25;;;;;;;;;;5001764;28;20033;-73
2023/11/15 03:06:55;;;;;;;2.60;1.00;;;;;;;;;;5009060;28;20117;-72
2023/11/15 03:09:21;;;;;;;1.25;1.05;;;;;;;;;;5006811;28;20120;-73
2023/11/15 03:11:46;;;;;;;2.15;1.00;;;;;;;;;;4998416;28;20073;-72
2023/11/15 03:14:12;;;;;;;3.40;1.08;;;;;;;;;;4988174;28;20547;-75
2023/11/15 03:16:37;;;;;;;1.70;0.90;;;;;;;;;;4999766;28;20057;-73
2023/11/15 03:19:04;;;;;;;0.88;0.70;;;;;;;;;;4998393;28;20038;-73
2023/11/15 03:21:29;;;;;;;1.73;0.77;;;;;;;;;;4999308;28;20127;-72
2023/11/15 03:23:55;;;;;;;0.85;0.80;;;;;;;;;;5004911;28;20037;-72
2023/11/15 03:26:20;;;;;;;1.20;0.77;;;;;;;;;;4996955;28;20115;-74
2023/11/15 03:28:45;;;;;;;1.17;0.88;;;;;;;;;;5004980;28;20044;-73
2023/11/15 03:31:12;;;;;;;1.55;0.93;;;;;;;;;;5008518;28;20042;-74
2023/11/15 03:33:39;;;;;;;2.72;0.98;;;;;;;;;;5016038;28;20088;-73
2023/11/15 03:36:05;;;;;;;1.83;1.05;;;;;;;;;;5003905;28;20104;-74
2023/11/15 03:38:31;;;;;;;0.60;0.60;;;;;;;;;;4986952;28;20046;-74
2023/11/15 03:40:56;;;;;;;1.63;0.88;;;;;;;;;;4991819;28;20055;-74
2023/11/15 03:43:22;;;;;;;0.95;0.80;;;;;;;;;;5003476;28;20050;-73
2023/11/15 03:45:47;;;;;;;0.50;0.50;;;;;;;;;;5010790;28;20030;-75
2023/11/15 03:48:12;;;;;;;1.00;0.60;;;;;;;;;;5010147;28;20048;-76
2023/11/15 03:50:38;;;;;;;1.27;0.60;;;;;;;;;;5006789;28;20069;-74
2023/11/15 03:53:04;;;;;;;0.50;0.50;;;;;;;;;;5020724;28;20135;-74
2023/11/15 03:55:30;;;;;;;0.35;0.30;;;;;;;;;;4999717;28;20092;-76
2023/11/15 03:57:56;;;;;;;0.85;0.50;;;;;;;;;;5010774;28;20042;-77
2023/11/15 04:00:22;;;;;;;0.60;0.50;;;;;;;;;;5002309;28;20026;-78
2023/11/15 04:02:47;;;;;;;0.20;0.20;;;;;;;;;;5007950;28;20041;-73
2023/11/15 04:05:16;;;;;;;0.55;0.55;;;;;;;;;;5016626;28;20025;-76
2023/11/15 04:07:42;;;;;;;0.32;0.32;;;;;;;;;;5001743;28;20042;-74
2023/11/15 04:10:09;;;;;;;0.60;0.35;;;;;;;;;;5001919;28;20496;-73
2023/11/15 04:12:34;;;;;;;0.98;0.50;;;;;;;;;;5002731;28;20044;-73
2023/11/15 04:15:00;;;;;;;0.68;0.68;;;;;;;;;;4986061;28;20033;-76
2023/11/15 04:17:26;;;;;;;0.65;0.40;;;;;;;;;;4993810;28;20063;-74
2023/11/15 04:19:51;;;;;;;0.40;0.40;;;;;;;;;;5005308;28;20030;-76
2023/11/15 04:22:16;;;;;;;0.40;0.40;;;;;;;;;;5009638;28;20030;-74
2023/11/15 04:24:44;;;;;;;0.68;0.40;;;;;;;;;;5005718;28;20048;-73
2023/11/15 04:27:10;;;;;;;1.83;0.70;;;;;;;;;;5007012;28;20496;-73
2023/11/15 04:29:41;;;;;;;0.43;0.40;;;;;;;;;;5018561;28;20037;-74
2023/11/15 04:32:07;;;;;;;0.30;0.30;;;;;;;;;;5011621;28;20041;-74
2023/11/15 04:34:32;;;;;;;1.60;0.43;;;;;;;;;;5002469;28;20037;-73
2023/11/15 04:36:57;;;;;;;0.70;0.28;;;;;;;;;;4993048;28;20034;-74
2023/11/15 04:39:24;;;;;;;1.23;0.45;;;;;;;;;;5010873;28;20044;-74
2023/11/15 04:41:50;;;;;;;0.40;0.40;;;;;;;;;;5002711;28;20037;-74
2023/11/15 04:44:16;;;;;;;0.30;0.30;;;;;;;;;;5009229;28;20041;-74
2023/11/15 04:46:42;;;;;;;2.03;0.73;;;;;;;;;;5010919;28;20050;-74
2023/11/15 04:49:07;;;;;;;0.28;0.28;;;;;;;;;;5012862;28;20633;-74
2023/11/15 04:51:33;;;;;;;1.38;0.30;;;;;;;;;;4990937;28;20033;-73
2023/11/15 04:53:58;;;;;;;0.30;0.30;;;;;;;;;;4986366;28;20042;-74
2023/11/15 04:56:24;;;;;;;0.40;0.40;;;;;;;;;;5025541;28;20029;-74
2023/11/15 04:58:52;;;;;;;0.60;0.32;;;;;;;;;;5000049;28;20070;-74
2023/11/15 05:01:18;;;;;;;1.80;0.90;;;;;;;;;;5001962;28;20037;-74
2023/11/15 05:03:43;;;;;;;0.50;0.50;;;;;;;;;;5000158;28;20065;-73
2023/11/15 05:06:09;;;;;;;0.40;0.40;;;;;;;;;;4973887;28;20034;-74
2023/11/15 05:08:34;;;;;;;0.47;0.45;;;;;;;;;;5002024;28;20041;-74
2023/11/15 05:11:01;;;;;;;1.13;0.50;;;;;;;;;;5004439;28;20076;-74
2023/11/15 05:13:28;;;;;;;0.90;0.90;;;;;;;;;;5003991;28;20575;-74
2023/11/15 05:15:54;;;;;;;1.30;0.70;;;;;;;;;;4999435;28;20041;-74
2023/11/15 05:18:20;;;;;;;1.50;0.90;;;;;;;;;;5011907;28;20548;-74
2023/11/15 05:20:45;;;;;;;3.25;1.17;;;;;;;;;;4989779;28;20091;-74
2023/11/15 05:23:11;;;;;;;1.60;1.27;;;;;;;;;;5007890;28;20037;-74
2023/11/15 05:25:36;;;;;;;2.00;1.20;;;;;;;;;;5007059;28;20049;-74
2023/11/15 05:28:02;;;;;;;1.63;0.70;;;;;;;;;;5012257;28;20049;-73
2023/11/15 05:30:28;;;;;;;2.80;1.52;;;;;;;;;;5006457;28;20606;-74
2023/11/15 05:32:54;;;;;;;5.35;1.73;;;;;;;;;;5009606;28;20042;-74
2023/11/15 05:35:19;;;;;;;1.35;1.25;;;;;;;;;;4999189;28;20040;-74
2023/11/15 05:37:45;;;;;;;3.88;0.88;;;;;;;;;;5005435;28;20033;-74
2023/11/15 05:40:13;;;;;;;5.95;2.08;;;;;;;;;;5007645;28;20061;-74
2023/11/15 05:42:38;;;;;;;3.72;1.85;;;;;;;;;;5008877;28;20041;-73
2023/11/15 05:45:04;;;;;;;2.85;1.58;;;;;;;;;;5004941;28;20829;-73
2023/11/15 05:47:30;;;;;;;2.65;1.42;;;;;;;;;;5003428;28;20500;-73
2023/11/15 05:49:55;;;;;;;4.60;1.50;;;;;;;;;;4997918;28;20608;-73
2023/11/15 05:52:22;;;;;;;2.67;1.67;;;;;;;;;;5005345;28;20041;-74
2023/11/15 05:54:47;;;;;;;3.45;1.30;;;;;;;;;;5008732;28;20047;-73
2023/11/15 05:57:15;;;;;;;1.60;1.05;;;;;;;;;;5009966;28;20044;-74
2023/11/15 05:59:41;;;;;;;2.97;1.73;;;;;;;;;;5012075;28;20213;-74
2023/11/15 06:02:06;;;;;;;1.83;1.05;;;;;;;;;;4994963;28;20615;-73
2023/11/15 06:04:33;;;;;;;1.88;1.10;;;;;;;;;;4995208;28;20552;-74
2023/11/15 06:07:01;;;;;;;2.00;1.33;;;;;;;;;;5005584;28;20041;-74
2023/11/15 06:09:28;;;;;;;2.97;1.67;;;;;;;;;;5005673;28;20059;-74
2023/11/15 06:11:54;;;;;;;4.25;1.70;;;;;;;;;;5008423;28;20041;-75
2023/11/15 06:14:19;;;;;;;0.35;0.35;;;;;;;;;;5012913;28;20072;-74
2023/11/15 06:16:45;;;;;;;1.52;0.80;;;;;;;;;;4992233;28;20037;-73
2023/11/15 06:19:10;;;;;;;0.38;0.38;;;;;;;;;;5008176;28;20042;-72
2023/11/15 06:21:41;;;;;;;1.15;0.68;;;;;;;;;;5001974;28;20037;-73
2023/11/15 06:24:06;;;;;;;0.53;0.53;;;;;;;;;;5006758;28;20201;-73
2023/11/15 06:26:36;;;;;;;0.90;0.70;;;;;;;;;;5003418;28;20274;-73
2023/11/15 06:29:03;;;;;;;3.50;0.70;;;;;;;;;;4993998;28;20096;-72
2023/11/15 06:31:29;;;;;;;0.90;0.80;;;;;;;;;;5014294;28;20061;-72
2023/11/15 06:33:54;;;;;;;0.70;0.60;;;;;;;;;;5019353;28;20038;-72
2023/11/15 06:36:20;;;;;;;0.77;0.77;;;;;;;;;;5012805;28;20108;-73
2023/11/15 06:38:46;;;;;;;2.78;0.90;;;;;;;;;;5001523;28;20112;-73
2023/11/15 06:41:12;;;;;;;2.00;1.10;;;;;;;;;;5012891;28;20071;-72
2023/11/15 06:43:37;;;;;;;4.55;0.90;;;;;;;;;;5000404;28;20131;-73
2023/11/15 06:46:03;;;;;;;2.13;0.60;;;;;;;;;;5005384;28;20050;-72
2023/11/15 06:48:28;;;;;;;0.88;0.60;;;;;;;;;;5004362;28;20033;-72
2023/11/15 06:50:53;;;;;;;1.23;0.73;;;;;;;;;;5007296;28;20034;-72
2023/11/15 06:53:19;;;;;;;0.60;0.50;;;;;;;;;;4999890;28;20340;-72
2023/11/15 06:55:46;;;;;;;2.20;0.70;;;;;;;;;;4998562;28;20120;-72
2023/11/15 06:58:15;;;;;;;1.60;0.60;;;;;;;;;;4991833;28;20041;-71
2023/11/15 07:00:43;;;;;;;0.90;0.55;;;;;;;;;;5006627;28;20123;-74
2023/11/15 07:03:12;;;;;;;1.08;0.80;;;;;;;;;;5002379;28;20041;-74
2023/11/15 07:05:40;;;;;;;0.93;0.60;;;;;;;;;;4991799;28;20795;-73
2023/11/15 07:08:06;;;;;;;0.50;0.50;;;;;;;;;;4992846;28;20472;-72
2023/11/15 07:10:32;;;;;;;3.58;1.90;;;;;;;;;;4999491;28;20495;-72
2023/11/15 07:13:00;;;;;;;1.58;1.10;;;;;;;;;;4995775;28;20112;-73
2023/11/15 07:15:26;;;;;;;4.97;4.07;;;;;;;;;;5005015;28;20033;-72
2023/11/15 07:17:52;;;;;;;2.58;1.80;;;;;;;;;;5017425;28;20450;-72
2023/11/15 07:20:20;;;;;;;2.42;2.20;;;;;;;;;;5005916;28;20034;-72
2023/11/15 07:22:46;;;;;;;11.68;7.38;;;;;;;;;;4992345;28;20112;-73
2023/11/15 07:25:13;;;;;;;6.45;5.22;;;;;;;;;;4992444;28;20129;-72
2023/11/15 07:27:38;;;;;;;2.80;2.00;;;;;;;;;;5005644;28;20911;-72
2023/11/15 07:30:05;;;;;;;7.25;5.28;;;;;;;;;;5007135;28;20117;-72
2023/11/15 07:32:30;;;;;;;8.23;6.05;;;;;;;;;;5003304;28;20621;-72
2023/11/15 07:34:57;;;;;;;18.02;10.82;;;;;;;;;;5009819;28;20073;-72
2023/11/15 07:37:22;;;;;;;18.58;14.60;;;;;;;;;;4999794;28;20034;-73
2023/11/15 07:39:48;;;;;;;7.35;5.50;;;;;;;;;;4994955;28;20072;-73
2023/11/15 07:42:15;;;;;;;0.52;0.52;;;;;;;;;;5007683;28;20041;-72
2023/11/15 07:44:43;;;;;;;6.28;5.47;;;;;;;;;;5009832;28;20041;-72
2023/11/15 07:47:08;;;;;;;4.40;3.03;;;;;;;;;;5009111;28;20519;-72
2023/11/15 07:49:33;;;;;;;1.48;1.38;;;;;;;;;;5003369;28;20077;-72
2023/11/15 07:51:59;;;;;;;3.67;2.38;;;;;;;;;;5006456;28;20069;-72
2023/11/15 07:54:24;;;;;;;1.92;1.80;;;;;;;;;;4993633;28;21489;-73
2023/11/15 07:56:50;;;;;;;5.30;2.38;;;;;;;;;;5009042;28;20037;-72
2023/11/15 07:59:16;;;;;;;6.97;4.05;;;;;;;;;;5003996;28;20041;-72
2023/11/15 08:01:42;;;;;;;4.60;2.33;;;;;;;;;;5008454;28;20065;-72
2023/11/15 08:04:07;;;;;;;1.42;0.85;;;;;;;;;;5007042;28;20057;-73
2023/11/15 08:06:35;;;;;;;4.32;2.45;;;;;;;;;;5007570;28;20033;-73
2023/11/15 08:09:02;;;;;;;3.30;2.22;;;;;;;;;;5005080;28;20041;-72
2023/11/15 08:11:28;;;;;;;2.38;1.05;;;;;;;;;;5006465;28;20105;-72
2023/11/15 08:13:53;;;;;;;1.98;1.38;;;;;;;;;;4999269;28;20046;-72
2023/11/15 08:16:22;;;;;;;2.28;0.90;;;;;;;;;;5003036;28;20129;-72
2023/11/15 08:18:48;;;;;;;0.57;0.57;;;;;;;;;;5010178;28;20117;-72
2023/11/15 08:21:13;;;;;;;0.75;0.52;;;;;;;;;;4998582;28;20380;-72
2023/11/15 08:23:39;;;;;;;0.85;0.57;;;;;;;;;;5010038;28;20508;-72
2023/11/15 08:26:05;;;;;;;0.60;0.50;;;;;;;;;;5012726;28;20034;-71
2023/11/15 08:28:31;;;;;;;2.08;0.68;;;;;;;;;;5012607;28;20068;-72
2023/11/15 08:30:58;;;;;;;0.75;0.70;;;;;;;;;;5008364;28;20063;-72
2023/11/15 08:33:23;;;;;;;0.63;0.63;;;;;;;;;;5005745;28;20030;-72
2023/11/15 08:35:50;;;;;;;0.85;0.80;;;;;;;;;;4994386;28;20040;-72
2023/11/15 08:38:18;;;;;;;1.58;0.80;;;;;;;;;;5007130;28;20539;-72
2023/11/15 08:40:48;;;;;;;0.88;0.70;;;;;;;;;;5006165;28;20042;-72
2023/11/15 08:43:14;;;;;;;1.75;0.90;;;;;;;;;;5008112;28;20025;-72
2023/11/15 08:45:41;;;;;;;3.63;1.75;;;;;;;;;;5006759;28;20736;-72
2023/11/15 08:48:08;;;;;;;2.55;1.13;;;;;;;;;;4989071;28;20038;-72
2023/11/15 08:50:34;;;;;;;0.98;0.90;;;;;;;;;;5003305;28;20057;-72
2023/11/15 08:52:59;;;;;;;3.67;1.35;;;;;;;;;;5011232;28;20052;-72
2023/11/15 08:55:25;;;;;;;4.95;2.10;;;;;;;;;;5005167;28;20041;-72
2023/11/15 08:57:50;;;;;;;3.35;1.92;;;;;;;;;;5011646;28;20029;-72
2023/11/15 09:00:18;;;;;;;2.38;1.30;;;;;;;;;;5004771;28;20040;-72
2023/11/15 09:02:46;;;;;;;2.95;0.80;;;;;;;;;;4997983;28;20627;-72
2023/11/15 09:05:14;;;;;;;1.67;1.33;;;;;;;;;;5007124;28;20080;-72
2023/11/15 09:07:40;;;;;;;0.75;0.60;;;;;;;;;;5011874;28;20548;-72
2023/11/15 09:10:11;;;;;;;0.60;0.60;;;;;;;;;;5006596;28;20042;-71
2023/11/15 09:12:37;;;;;;;2.45;1.30;;;;;;;;;;5011552;28;20180;-71
2023/11/15 09:15:11;;;;;;;1.75;0.80;;;;;;;;;;5004638;28;20695;-72
2023/11/15 09:17:46;;;;;;;2.38;1.10;;;;;;;;;;4984941;28;20518;-71
2023/11/15 09:20:19;;;;;;;3.28;1.60;;;;;;;;;;5010295;28;20120;-71
2023/11/15 09:22:53;;;;;;;1.73;1.33;;;;;;;;;;5003977;28;20486;-71
2023/11/15 09:25:30;;;;;;;2.53;1.00;;;;;;;;;;5002226;28;20038;-73
2023/11/15 09:27:59;;;;;;;2.97;1.48;;;;;;;;;;4975720;28;20053;-73
2023/11/15 09:30:25;;;;;;;1.33;1.00;;;;;;;;;;5007914;28;20038;-73
2023/11/15 09:32:51;;;;;;;0.70;0.70;;;;;;;;;;4990819;28;20038;-73
2023/11/15 09:35:27;;;;;;;2.22;0.70;;;;;;;;;;5007108;28;20042;-73
2023/11/15 09:37:53;;;;;;;0.55;0.50;;;;;;;;;;5005340;28;20123;-73
2023/11/15 09:40:20;;;;;;;1.27;0.77;;;;;;;;;;4995528;28;20565;-73
2023/11/15 09:42:50;;;;;;;0.68;0.55;;;;;;;;;;5004479;28;20068;-73
2023/11/15 09:45:17;;;;;;;1.60;0.93;;;;;;;;;;4997330;28;20124;-73
2023/11/15 09:47:47;;;;;;;2.88;1.75;;;;;;;;;;5002097;28;20096;-73
2023/11/15 09:50:21;;;;;;;5.20;4.68;;;;;;;;;;5006184;28;20124;-73
2023/11/15 09:52:49;;;;;;;4.93;4.22;;;;;;;;;;4998328;28;20124;-73
2023/11/15 09:55:19;;;;;;;6.47;4.82;;;;;;;;;;5002738;28;20050;-73
2023/11/15 09:57:46;;;;;;;8.25;6.10;;;;;;;;;;5004021;28;20099;-73
2023/11/15 10:00:15;;;;;;;5.47;3.15;;;;;;;;;;5001837;28;20036;-73
2023/11/15 10:02:41;;;;;;;24.10;17.25;;;;;;;;;;5003974;28;20130;-73
2023/11/15 10:05:21;;;;;;;0.90;0.80;;;;;;;;;;4991928;28;20641;-72
2023/11/15 10:07:55;;;;;;;1.58;0.70;;;;;;;;;;5004284;28;20138;-72
2023/11/15 10:10:23;;;;;;;2.97;1.05;;;;;;;;;;5008642;28;20595;-72
2023/11/15 10:12:49;;;;;;;0.60;0.60;;;;;;;;;;5013519;28;20124;-73
2023/11/15 10:15:36;;;;;;;1.35;1.25;;;;;;;;;;4992387;28;20030;-73
2023/11/15 10:18:03;;;;;;;1.33;1.30;;;;;;;;;;4999906;28;20102;-73
2023/11/15 10:20:30;;;;;;;1.75;1.05;;;;;;;;;;5008398;28;20037;-73
2023/11/15 10:22:57;;;;;;;0.93;0.93;;;;;;;;;;5007001;28;20037;-73
2023/11/15 10:25:25;;;;;;;1.00;0.90;;;;;;;;;;5008978;28;20049;-72
2023/11/15 10:28:14;;;;;;;1.10;1.00;;;;;;;;;;5007706;28;20045;-73
2023/11/15 10:30:40;;;;;;;0.77;0.60;;;;;;;;;;4961757;28;20425;-73
2023/11/15 10:33:07;;;;;;;1.02;0.80;;;;;;;;;;5012541;28;20049;-73
2023/11/15 10:35:33;;;;;;;1.50;0.60;;;;;;;;;;5012819;28;20466;-73
2023/11/15 10:37:58;;;;;;;0.60;0.60;;;;;;;;;;5011144;28;20040;-73
2023/11/15 10:40:29;;;;;;;1.08;0.70;;;;;;;;;;5009849;28;20820;-73
2023/11/15 10:43:01;;;;;;;1.27;0.50;;;;;;;;;;4984861;28;20037;-73
2023/11/15 10:45:28;;;;;;;1.15;0.60;;;;;;;;;;4995650;28;20132;-73
2023/11/15 10:48:11;;;;;;;1.33;1.23;;;;;;;;;;5000552;28;20191;-73
2023/11/15 10:50:42;;;;;;;1.15;0.60;;;;;;;;;;4998667;28;20066;-73
2023/11/15 10:53:10;;;;;;;;;;;;;;;;;;5007111;28;20064;-73
2023/11/15 10:55:38;;;;;;;1.10;1.00;;;;;;;;;;4981839;28;19980;-73
2023/11/15 10:58:05;;;;;;;1.70;1.00;;;;;;;;;;5003955;28;20037;-72
2023/11/15 11:00:31;;;;;;;2.00;0.75;;;;;;;;;;5000473;28;20045;-73
2023/11/15 11:02:59;;;;;;;0.90;0.80;;;;;;;;;;5005344;28;20512;-72
2023/11/15 11:05:46;;;;;;;0.57;0.57;;;;;;;;;;4994415;28;20858;-73
2023/11/15 11:08:26;;;;;;;0.60;0.50;;;;;;;;;;4981854;28;20108;-72
2023/11/15 11:10:57;;;;;;;0.55;0.50;;;;;;;;;;5007373;28;20037;-73
2023/11/15 11:13:23;;;;;;;;;;;;;;;;;;5013488;28;20042;-73
2023/11/15 11:15:49;;;;;;;0.60;0.60;;;;;;;;;;5009534;28;19964;-72
2023/11/15 11:18:18;;;;;;;2.58;0.55;;;;;;;;;;5007788;28;20048;-72
2023/11/15 11:20:59;;;;;;;0.40;0.40;;;;;;;;;;4992185;28;20133;-72
2023/11/15 11:23:26;;;;;;;1.08;0.63;;;;;;;;;;5008403;28;20477;-72
2023/11/15 11:25:55;;;;;;;0.40;0.40;;;;;;;;;;5011620;28;20137;-72
2023/11/15 11:28:21;;;;;;;1.00;0.70;;;;;;;;;;5010797;28;20029;-72
2023/11/15 11:31:14;;;;;;;0.52;0.52;;;;;;;;;;5010752;28;20048;-72
2023/11/15 11:34:08;;;;;;;0.75;0.30;;;;;;;;;;4991395;28;20051;-72
2023/11/15 11:36:53;;;;;;;0.55;0.40;;;;;;;;;;5010496;28;20641;-72
2023/11/15 11:39:41;;;;;;;0.45;0.45;;;;;;;;;;5013222;28;20642;-73
2023/11/15 11:42:24;;;;;;;0.68;0.40;;;;;;;;;;4987082;28;20050;-71
2023/11/15 11:44:56;;;;;;;0.20;0.20;;;;;;;;;;5005138;28;20034;-73
2023/11/15 11:47:21;;;;;;;0.57;0.57;;;;;;;;;;4992440;28;20147;-76
2023/11/15 11:49:48;;;;;;;1.38;0.80;;;;;;;;;;5017447;28;20046;-74
2023/11/15 11:52:17;;;;;;;1.20;0.70;;;;;;;;;;4994073;28;20116;-72
2023/11/15 11:54:52;;;;;;;0.70;0.45;;;;;;;;;;5003249;28;20038;-73
2023/11/15 11:57:21;;;;;;;0.57;0.45;;;;;;;;;;5003663;28;20040;-72
2023/11/15 12:00:10;;;;;;;0.40;0.40;;;;;;;;;;5003058;28;20733;-73
2023/11/15 12:02:40;;;;;;;0.60;0.60;;;;;;;;;;5002826;28;20056;-72
2023/11/15 12:05:06;;;;;;;0.40;0.40;;;;;;;;;;4979883;28;20506;-72
2023/11/15 12:07:32;;;;;;;0.50;0.40;;;;;;;;;;5001442;28;20080;-72
2023/11/15 12:10:05;;;;;;;0.30;0.30;;;;;;;;;;5008020;28;20035;-74
2023/11/15 12:12:31;;;;;;;1.05;0.40;;;;;;;;;;5005770;28;20033;-72
2023/11/15 12:14:59;;;;;;;0.50;0.40;;;;;;;;;;5010476;28;20053;-73
2023/11/15 12:17:39;;;;;;;0.47;0.47;;;;;;;;;;4997104;28;20033;-72
2023/11/15 12:20:09;;;;;;;0.68;0.50;;;;;;;;;;5011476;28;20030;-73
2023/11/15 12:22:37;;;;;;;0.65;0.50;;;;;;;;;;4999141;28;20503;-73
2023/11/15 12:25:04;;;;;;;0.40;0.40;;;;;;;;;;5013207;28;20136;-73
2023/11/15 12:27:32;;;;;;;0.52;0.52;;;;;;;;;;5007446;28;20037;-73
2023/11/15 12:29:57;;;;;;;0.43;0.43;;;;;;;;;;5000555;28;20073;-73
2023/11/15 12:32:23;;;;;;;0.82;0.77;;;;;;;;;;4986209;28;20040;-72
2023/11/15 12:34:48;;;;;;;1.65;0.70;;;;;;;;;;5005501;28;20590;-73
2023/11/15 12:37:14;;;;;;;1.48;0.80;;;;;;;;;;5005720;28;20598;-74
2023/11/15 12:39:40;;;;;;;0.93;0.50;;;;;;;;;;5004620;28;20045;-74
2023/11/15 12:42:05;;;;;;;2.25;0.50;;;;;;;;;;4979941;28;20026;-71
2023/11/15 12:44:44;;;;;;;1.35;0.60;;;;;;;;;;5001646;28;20477;-73
2023/11/15 12:47:10;;;;;;;0.57;0.57;;;;;;;;;;4999614;28;20045;-72
2023/11/15 12:49:37;;;;;;;0.50;0.50;;;;;;;;;;5004836;28;20516;-73
2023/11/15 12:52:03;;;;;;;1.77;0.80;;;;;;;;;;4998823;28;20033;-73
2023/11/15 12:54:30;;;;;;;1.60;0.40;;;;;;;;;;5001548;28;20033;-72
2023/11/15 12:57:07;;;;;;;0.40;0.40;;;;;;;;;;4975638;28;20125;-73
2023/11/15 12:59:36;;;;;;;2.08;0.50;;;;;;;;;;5004985;28;20120;-72
2023/11/15 13:02:02;;;;;;;0.60;0.60;;;;;;;;;;5004531;28;20034;-72
2023/11/15 13:04:45;;;;;;;0.55;0.40;;;;;;;;;;5007515;28;20052;-72
2023/11/15 13:07:10;;;;;;;0.30;0.30;;;;;;;;;;4991400;28;20533;-73
2023/11/15 13:09:35;;;;;;;0.40;0.40;;;;;;;;;;5005152;28;20128;-72
2023/11/15 13:12:01;;;;;;;0.57;0.30;;;;;;;;;;5008889;28;20577;-73
2023/11/15 13:14:27;;;;;;;0.40;0.30;;;;;;;;;;5006827;28;20040;-72
2023/11/15 13:16:53;;;;;;;0.50;0.40;;;;;;;;;;5005603;28;20041;-73
2023/11/15 13:19:18;;;;;;;0.30;0.30;;;;;;;;;;5006755;28;20647;-73
2023/11/15 13:21:45;;;;;;;0.52;0.50;;;;;;;;;;4996654;28;20063;-74
2023/11/15 13:24:10;;;;;;;0.30;0.30;;;;;;;;;;5007024;28;20041;-72
2023/11/15 13:26:35;;;;;;;0.25;0.25;;;;;;;;;;5002852;28;20092;-71
2023/11/15 13:29:02;;;;;;;0.30;0.30;;;;;;;;;;5000551;28;20435;-73
2023/11/15 13:31:28;;;;;;;0.20;0.20;;;;;;;;;;5008559;28;20041;-72
2023/11/15 13:33:54;;;;;;;0.35;0.35;;;;;;;;;;5005955;28;20057;-72
2023/11/15 13:36:21;;;;;;;0.52;0.40;;;;;;;;;;4997156;28;20038;-72
2023/11/15 13:38:47;;;;;;;0.60;0.50;;;;;;;;;;5008449;28;20131;-75
2023/11/15 13:41:15;;;;;;;3.30;0.60;;;;;;;;;;5005976;28;20029;-71
2023/11/15 13:43:41;;;;;;;0.30;0.30;;;;;;;;;;5004142;28;20038;-74
2023/11/15 13:46:08;;;;;;;0.57;0.40;;;;;;;;;;5010673;28;20261;-73
2023/11/15 13:48:36;;;;;;;0.40;0.40;;;;;;;;;;4974621;28;20043;-73
2023/11/15 13:51:02;;;;;;;0.82;0.47;;;;;;;;;;5008403;28;20065;-72
2023/11/15 13:53:27;;;;;;;0.80;0.50;;;;;;;;;;5002061;28;20133;-72
2023/11/15 13:55:53;;;;;;;1.48;0.75;;;;;;;;;;5010091;28;20121;-72
2023/11/15 13:58:20;;;;;;;0.68;0.68;;;;;;;;;;5006353;28;20570;-73
2023/11/15 14:00:48;;;;;;;1.35;0.70;;;;;;;;;;5006899;28;20037;-72
2023/11/15 14:03:14;;;;;;;2.25;1.30;;;;;;;;;;4998361;28;20646;-72
2023/11/15 14:05:43;;;;;;;2.67;1.60;;;;;;;;;;5001138;28;20045;-71
2023/11/15 14:08:09;;;;;;;1.58;0.98;;;;;;;;;;5003749;28;20080;-72
2023/11/15 14:10:44;;;;;;;0.95;0.80;;;;;;;;;;5003825;28;20087;-72
2023/11/15 14:13:09;;;;;;;2.97;1.73;;;;;;;;;;4997669;28;20038;-74
2023/11/15 14:15:37;;;;;;;2.35;0.88;;;;;;;;;;4997389;28;20041;-72
2023/11/15 14:18:03;;;;;;;0.60;0.50;;;;;;;;;;5013424;28;20033;-73
2023/11/15 14:20:34;;;;;;;1.88;1.20;;;;;;;;;;4999461;28;20603;-71
2023/11/15 14:22:59;;;;;;;3.73;1.20;;;;;;;;;;5004391;28;20034;-74
2023/11/15 14:25:31;;;;;;;13.60;7.75;;;;;;;;;;5005652;28;20147;-72
2023/11/15 14:27:57;;;;;;;3.13;2.50;;;;;;;;;;5005858;28;20132;-74
2023/11/15 14:30:23;;;;;;;1.98;1.42;;;;;;;;;;4992442;28;20205;-72
2023/11/15 14:32:49;;;;;;;2.58;1.23;;;;;;;;;;5002452;28;20038;-74
2023/11/15 14:35:16;;;;;;;1.00;0.90;;;;;;;;;;4995471;28;20407;-72
2023/11/15 14:37:43;;;;;;;4.78;3.78;;;;;;;;;;5000007;28;20049;-73
2023/11/15 14:40:11;;;;;;;14.32;11.93;;;;;;;;;;5001739;28;20104;-73
2023/11/15 14:42:42;;;;;;;20.85;14.38;;;;;;;;;;4989433;28;20045;-73
2023/11/15 14:45:08;;;;;;;4.93;2.95;;;;;;;;;;5004756;28;20076;-74